| time (UTC) | temp C | wind direction | speed KPH | gust KPH | rain 1hr cm | rain 24hr cm | rain mn cm | humidity % | barometer mb |
| 20260507084538 | 7 | 290 | 0.0 | 3.2 | 0.03 | 0.58 | 0.03 | 86 | 1007.6 |
| 20260507083038 | 8 | 298 | 3.2 | 6.4 | 0.03 | 0.58 | 0.03 | 87 | 1006.9 |
| 20260507081538 | 8 | 335 | 3.2 | 9.7 | 0.03 | 0.58 | 0.03 | 87 | 1007.0 |
| 20260507080036 | 8 | 0 | 3.2 | 9.7 | 0.03 | 0.58 | 0.03 | 86 | 1006.7 |
| 20260507074543 | 9 | 319 | 3.2 | 11.3 | 0.00 | 0.56 | 0.00 | 86 | 1007.1 |
| 20260507073032 | 9 | 240 | 3.2 | 11.3 | 0.00 | 0.56 | 0.00 | 86 | 1006.7 |
| 20260507071533 | 9 | 0 | 1.6 | 12.9 | 0.00 | 0.56 | 0.00 | 86 | 1006.5 |
| 20260507070036 | 9 | 0 | 1.6 | 6.4 | 0.00 | 0.56 | 0.00 | 86 | 1006.8 |
| 20260507064537 | 9 | 0 | 0.0 | 4.8 | 0.00 | 0.56 | 0.00 | 86 | 1006.2 |
| 20260507063037 | 10 | 223 | 0.0 | 6.4 | 0.00 | 0.56 | 0.00 | 86 | 1006.5 |
| 20260507061534 | 10 | 303 | 1.6 | 9.7 | 0.00 | 0.56 | 0.00 | 86 | 1006.2 |
| 20260507060039 | 10 | 0 | 1.6 | 9.7 | 0.00 | 0.56 | 0.00 | 86 | 1006.3 |
| 20260507054532 | 10 | 0 | 1.6 | 12.9 | 0.00 | 0.56 | 0.00 | 85 | 1006.6 |
| 20260507053032 | 10 | 321 | 1.6 | 12.9 | 0.00 | 0.56 | 0.00 | 85 | 1006.9 |
| 20260507051539 | 10 | 329 | 3.2 | 12.9 | 0.00 | 0.56 | 0.00 | 86 | 1006.7 |
| 20260507050041 | 10 | 0 | 1.6 | 16.1 | 0.00 | 0.56 | 0.00 | 86 | 1006.5 |
| 20260507044534 | 10 | 307 | 4.8 | 12.9 | 0.00 | 0.56 | 0.00 | 85 | 1006.6 |
| 20260507043032 | 10 | 343 | 1.6 | 6.4 | 0.00 | 0.56 | 0.00 | 83 | 1006.5 |
| 20260507041533 | 11 | 67 | 3.2 | 16.1 | 0.00 | 0.56 | 0.00 | 83 | 1006.8 |
| 20260507040034 | 11 | 309 | 4.8 | 16.1 | 0.00 | 0.56 | 0.00 | 83 | 1006.7 |
| 20260507034552 | 12 | 0 | 1.6 | 11.3 | 0.00 | 0.56 | 0.56 | 81 | 1006.3 |
| 20260507033041 | 12 | 0 | 0.0 | 14.5 | 0.03 | 0.56 | 0.56 | 81 | 1006.0 |
| 20260507031535 | 13 | 0 | 1.6 | 14.5 | 0.03 | 0.56 | 0.56 | 78 | 1005.6 |
| 20260507030036 | 13 | 278 | 4.8 | 16.1 | 0.03 | 0.56 | 0.56 | 74 | 1005.8 |
| 20260507024548 | 13 | 303 | 3.2 | 12.9 | 0.03 | 0.56 | 0.56 | 74 | 1005.5 |
| 20260507023037 | 13 | 231 | 3.2 | 8.0 | 0.00 | 0.53 | 0.53 | 74 | 1005.4 |
| 20260507021545 | 13 | 267 | 3.2 | 11.3 | 0.00 | 0.53 | 0.53 | 74 | 1005.1 |
| 20260507020035 | 13 | 0 | 3.2 | 14.5 | 0.00 | 0.53 | 0.53 | 74 | 1005.2 |
| 20260507014540 | 13 | 202 | 1.6 | 14.5 | 0.00 | 0.53 | 0.53 | 74 | 1005.3 |
| 20260507013034 | 13 | 177 | 4.8 | 11.3 | 0.00 | 0.53 | 0.53 | 74 | 1005.3 |
| 20260507011540 | 13 | 0 | 3.2 | 17.7 | 0.00 | 0.53 | 0.53 | 74 | 1005.4 |
| 20260507010032 | 13 | 168 | 1.6 | 11.3 | 0.00 | 0.53 | 0.53 | 74 | 1005.4 |
| 20260507004531 | 13 | 243 | 8.0 | 17.7 | 0.00 | 0.53 | 0.53 | 74 | 1005.5 |
| 20260507003034 | 13 | 0 | 4.8 | 20.9 | 0.00 | 0.53 | 0.53 | 75 | 1005.2 |
| 20260507001541 | 13 | 0 | 1.6 | 9.7 | 0.03 | 0.53 | 0.53 | 75 | 1005.2 |
| 20260507000033 | 13 | 238 | 3.2 | 16.1 | 0.10 | 0.53 | 0.53 | 75 | 1005.1 |
| 20260506234532 | 13 | 326 | 3.2 | 14.5 | 0.15 | 0.53 | 0.53 | 75 | 1005.0 |
| 20260506233033 | 13 | 197 | 3.2 | 14.5 | 0.18 | 0.53 | 0.53 | 75 | 1005.1 |
| 20260506231533 | 13 | 146 | 1.6 | 14.5 | 0.15 | 0.51 | 0.51 | 76 | 1005.1 |
| 20260506230042 | 13 | 198 | 4.8 | 16.1 | 0.10 | 0.43 | 0.43 | 76 | 1005.3 |
| 20260506224534 | 13 | 290 | 3.2 | 14.5 | 0.08 | 0.38 | 0.38 | 77 | 1005.3 |
| 20260506223032 | 13 | 177 | 3.2 | 12.9 | 0.08 | 0.36 | 0.36 | 77 | 1005.3 |
| 20260506221537 | 14 | 250 | 1.6 | 16.1 | 0.08 | 0.36 | 0.36 | 78 | 1005.4 |
| 20260506220040 | 14 | 147 | 3.2 | 14.5 | 0.08 | 0.33 | 0.33 | 78 | 1005.6 |
| 20260506214537 | 14 | 236 | 1.6 | 12.9 | 0.08 | 0.30 | 0.30 | 79 | 1005.5 |
| 20260506213036 | 14 | 185 | 3.2 | 20.9 | 0.10 | 0.28 | 0.28 | 79 | 1005.7 |
| 20260506211540 | 14 | 238 | 6.4 | 16.1 | 0.13 | 0.28 | 0.28 | 80 | 1005.9 |
| 20260506210032 | 15 | 156 | 8.0 | 25.7 | 0.13 | 0.25 | 0.25 | 81 | 1006.0 |
| 20260506204533 | 15 | 166 | 4.8 | 20.9 | 0.10 | 0.23 | 0.23 | 81 | 1006.2 |
| 20260506203032 | 15 | 280 | 3.2 | 16.1 | 0.05 | 0.18 | 0.18 | 82 | 1006.1 |
| 20260506201532 | 16 | 0 | 3.2 | 11.3 | 0.05 | 0.15 | 0.15 | 83 | 1006.3 |
| 20260506200032 | 16 | 156 | 1.6 | 12.9 | 0.05 | 0.13 | 0.13 | 83 | 1006.2 |
| 20260506194538 | 16 | 169 | 1.6 | 17.7 | 0.08 | 0.13 | 0.13 | 84 | 1006.3 |
| 20260506193034 | 16 | 181 | 0.0 | 12.9 | 0.10 | 0.13 | 0.13 | 83 | 1006.2 |
| 20260506191534 | 16 | 0 | 0.0 | 1.6 | 0.10 | 0.10 | 0.10 | 83 | 1006.0 |
| 20260506190032 | 17 | 0 | 1.6 | 4.8 | 0.08 | 0.08 | 0.08 | 84 | 1006.5 |
| 20260506184531 | 17 | 300 | 3.2 | 9.7 | 0.03 | 0.03 | 0.03 | 82 | 1006.6 |
| 20260506183034 | 18 | 263 | 1.6 | 14.5 | 0.00 | 0.00 | 0.00 | 77 | 1006.7 |
| 20260506181536 | 20 | 259 | 4.8 | 20.9 | 0.00 | 0.00 | 0.00 | 68 | 1006.7 |
| 20260506180033 | 20 | 239 | 6.4 | 24.1 | 0.00 | 0.00 | 0.00 | 64 | 1006.4 |
| 20260506174534 | 21 | 242 | 9.7 | 24.1 | 0.00 | 0.00 | 0.00 | 64 | 1006.7 |
| 20260506173032 | 21 | 224 | 6.4 | 33.8 | 0.00 | 0.00 | 0.00 | 63 | 1006.5 |
| 20260506171533 | 22 | 228 | 9.7 | 37.0 | 0.00 | 0.00 | 0.00 | 63 | 1006.7 |
| 20260506170036 | 21 | 221 | 9.7 | 30.6 | 0.00 | 0.00 | 0.00 | 60 | 1006.9 |
| 20260506164532 | 21 | 207 | 6.4 | 22.5 | 0.00 | 0.00 | 0.00 | 65 | 1007.0 |
| 20260506163035 | 21 | 158 | 6.4 | 17.7 | 0.00 | 0.00 | 0.00 | 62 | 1007.2 |
| 20260506161535 | 21 | 226 | 8.0 | 22.5 | 0.00 | 0.00 | 0.00 | 68 | 1007.4 |
| 20260506160035 | 20 | 256 | 6.4 | 27.4 | 0.00 | 0.00 | 0.00 | 64 | 1007.9 |
| 20260506154539 | 20 | 292 | 4.8 | 20.9 | 0.00 | 0.00 | 0.00 | 69 | 1008.1 |
| 20260506153041 | 20 | 242 | 8.0 | 24.1 | 0.00 | 0.00 | 0.00 | 69 | 1008.5 |
| 20260506151534 | 20 | 153 | 9.7 | 25.7 | 0.00 | 0.00 | 0.00 | 68 | 1008.7 |
| 20260506150040 | 20 | 243 | 3.2 | 22.5 | 0.00 | 0.00 | 0.00 | 67 | 1008.5 |
| 20260506144552 | 20 | 139 | 4.8 | 25.7 | 0.00 | 0.00 | 0.00 | 70 | 1008.6 |
| 20260506143041 | 20 | 155 | 4.8 | 25.7 | 0.00 | 0.00 | 0.00 | 68 | 1008.4 |
| 20260506141533 | 19 | 236 | 12.9 | 30.6 | 0.00 | 0.00 | 0.00 | 73 | 1008.3 |
| 20260506140053 | 18 | 262 | 6.4 | 19.3 | 0.00 | 0.00 | 0.00 | 73 | 1008.4 |
| 20260506134536 | 18 | 166 | 6.4 | 14.5 | 0.00 | 0.00 | 0.00 | 77 | 1008.5 |
| 20260506133032 | 17 | 152 | 8.0 | 20.9 | 0.00 | 0.00 | 0.00 | 78 | 1008.9 |
| 20260506131538 | 17 | 295 | 4.8 | 17.7 | 0.00 | 0.00 | 0.00 | 78 | 1009.1 |
| 20260506130054 | 17 | 135 | 3.2 | 17.7 | 0.00 | 0.00 | 0.00 | 78 | 1008.9 |
| 20260506124534 | 17 | 217 | 8.0 | 16.1 | 0.00 | 0.00 | 0.00 | 78 | 1009.0 |
| 20260506123039 | 17 | 233 | 8.0 | 17.7 | 0.00 | 0.00 | 0.00 | 79 | 1008.9 |
| 20260506121534 | 17 | 191 | 6.4 | 17.7 | 0.00 | 0.00 | 0.00 | 79 | 1009.1 |
| 20260506120034 | 16 | 136 | 3.2 | 12.9 | 0.00 | 0.00 | 0.00 | 80 | 1009.1 |
| 20260506114533 | 16 | 257 | 4.8 | 19.3 | 0.00 | 0.00 | 0.00 | 81 | 1009.3 |
| 20260506113037 | 16 | 247 | 3.2 | 11.3 | 0.00 | 0.00 | 0.00 | 81 | 1009.4 |
| 20260506111534 | 15 | 242 | 3.2 | 16.1 | 0.00 | 0.00 | 0.00 | 81 | 1009.6 |
| 20260506110040 | 15 | 172 | 3.2 | 11.3 | 0.00 | 0.00 | 0.00 | 82 | 1009.2 |
| 20260506104538 | 15 | 139 | 4.8 | 12.9 | 0.00 | 0.00 | 0.00 | 82 | 1009.4 |
| 20260506103033 | 15 | 160 | 3.2 | 11.3 | 0.00 | 0.00 | 0.00 | 82 | 1009.4 |
| 20260506101537 | 15 | 174 | 4.8 | 12.9 | 0.00 | 0.00 | 0.00 | 82 | 1009.4 |
| 20260506100037 | 15 | 153 | 1.6 | 9.7 | 0.00 | 0.00 | 0.00 | 82 | 1009.5 |
| 20260506094534 | 15 | 204 | 3.2 | 11.3 | 0.00 | 0.00 | 0.00 | 82 | 1009.2 |
| 20260506093035 | 15 | 215 | 1.6 | 16.1 | 0.00 | 0.00 | 0.00 | 81 | 1009.3 |
| 20260506091533 | 15 | 248 | 3.2 | 12.9 | 0.00 | 0.00 | 0.00 | 81 | 1009.3 |
| 20260506090041 | 15 | 200 | 4.8 | 12.9 | 0.00 | 0.00 | 0.00 | 80 | 1009.3 |